Time;durP1;ratioP1;P1;durP2;ratioP2;P2;SDS_P1;SDS_P2;PMS_P1;PMS_P2;Temp;Humidity;BMP_temperature;BMP_pressure;BME280_temperature;BME280_humidity;BME280_pressure;Samples;Min_cycle;Max_cycle;Signal;HPM_P1;HPM_P2
2023/02/18 00:00:29;;;;;;;;;15.00;14.00;;;;;14.93;64.68;102740.19;2037244;28;2820179;-74
2023/02/18 00:01:40;;;;;;;;;18.00;15.00;;;;;14.94;64.45;102746.34;2024443;27;2796143;-74
2023/02/18 00:02:51;;;;;;;;;13.00;11.67;;;;;14.92;64.74;102737.53;2000048;28;2786674;-74
2023/02/18 00:04:02;;;;;;;;;12.00;12.00;;;;;14.92;64.50;102741.06;2021692;28;2779411;-74
2023/02/18 00:05:15;;;;;;;;;16.33;13.67;;;;;14.93;64.70;102736.66;2007177;28;2791886;-75
2023/02/18 00:06:30;;;;;;;;;12.00;11.50;;;;;14.92;64.66;102734.91;2022818;28;2812707;-74
2023/02/18 00:07:41;;;;;;;;;11.00;11.00;;;;;14.92;64.75;102727.84;2008606;27;2786722;-74
2023/02/18 00:08:52;;;;;;;;;14.00;12.50;;;;;14.92;64.83;102733.13;2009684;27;2792932;-74
2023/02/18 00:10:05;;;;;;;;;14.00;14.00;;;;;14.92;64.83;102734.91;2004497;27;2788219;-74
2023/02/18 00:11:18;;;;;;;;;16.67;14.67;;;;;14.91;64.60;102728.75;2001193;28;2816884;-74
2023/02/18 00:12:30;;;;;;;;;15.50;14.50;;;;;14.91;64.75;102727.88;2022298;28;2788819;-75
2023/02/18 00:13:40;;;;;;;;;11.00;10.00;;;;;14.91;64.59;102727.88;1999662;28;2788797;-74
2023/02/18 00:14:51;;;;;;;;;10.50;10.50;;;;;14.92;64.54;102734.91;2017602;27;2789823;-74
2023/02/18 00:16:05;;;;;;;;;12.50;12.50;;;;;14.90;64.72;102734.94;2013711;28;2791938;-75
2023/02/18 00:17:16;;;;;;;;;16.00;11.50;;;;;14.89;64.50;102730.53;1995653;28;2794009;-75
2023/02/18 00:18:27;;;;;;;;;13.00;10.00;;;;;14.89;64.82;102730.53;2015875;27;2789898;-75
2023/02/18 00:19:38;;;;;;;;;11.40;11.00;;;;;14.89;64.91;102737.63;2053347;28;1833674;-75
2023/02/18 00:20:49;;;;;;;;;12.00;12.00;;;;;14.88;64.77;102731.47;2023449;28;2797158;-75
2023/02/18 00:22:00;;;;;;;;;11.50;10.00;;;;;14.88;64.35;102730.56;2016427;28;2789846;-75
2023/02/18 00:23:12;;;;;;;;;27.00;19.80;;;;;14.87;64.63;102727.06;2044007;28;3585597;-75
2023/02/18 00:24:24;;;;;;;;;18.00;16.00;;;;;14.88;64.59;102735.88;2022970;28;3549144;-75
2023/02/18 00:25:36;;;;;;;;;17.33;17.33;;;;;14.85;64.62;102732.38;2040081;28;3555430;-74
2023/02/18 00:26:49;;;;;;;;;15.00;10.00;;;;;14.85;64.52;102737.69;2031915;28;2796144;-75
2023/02/18 00:28:00;;;;;;;;;12.00;11.00;;;;;14.83;64.48;102728.88;1999052;28;2791922;-74
2023/02/18 00:29:11;;;;;;;;;15.00;13.50;;;;;14.83;64.53;102734.16;2015897;28;2791897;-75
2023/02/18 00:30:22;;;;;;;;;10.00;8.00;;;;;14.83;64.74;102728.88;2029961;28;2764840;-74
2023/02/18 00:31:35;;;;;;;;;10.50;10.00;;;;;14.84;64.80;102727.09;2035975;27;2789814;-75
2023/02/18 00:32:46;;;;;;;;;11.50;11.00;;;;;14.84;64.73;102729.75;2000457;28;2791879;-75
2023/02/18 00:33:58;;;;;;;;;15.40;9.40;;;;;14.85;64.44;102726.19;2031440;28;1828408;-75
2023/02/18 00:35:09;;;;;;;;;14.50;12.00;;;;;14.84;64.83;102730.59;2023401;28;2791989;-75
2023/02/18 00:36:21;;;;;;;;;14.40;14.00;;;;;14.85;64.64;102726.19;2021499;28;1829405;-75
2023/02/18 00:37:31;;;;;;;;;15.00;10.00;;;;;14.85;64.69;102729.75;2019368;28;2796067;-75
2023/02/18 00:38:45;;;;;;;;;13.50;12.00;;;;;14.84;64.50;102730.59;2017904;28;2796085;-74
2023/02/18 00:39:58;;;;;;;;;13.83;12.00;;;;;14.85;64.60;102735.03;2031454;28;1833681;-74
2023/02/18 00:41:08;;;;;;;;;15.00;14.00;;;;;14.85;64.74;102728.81;2001411;27;2811749;-74
2023/02/18 00:42:20;;;;;;;;;12.00;12.00;;;;;14.84;64.45;102730.59;2039680;28;2789891;-75
2023/02/18 00:43:30;;;;;;;;;13.00;11.50;;;;;14.86;64.54;102738.56;2010692;28;2793965;-75
2023/02/18 00:44:41;;;;;;;;;12.50;11.00;;;;;14.85;64.55;102732.38;2010162;28;2785696;-74
2023/02/18 00:45:53;;;;;;;;;12.00;12.00;;;;;14.85;64.71;102728.81;2011347;28;2789811;-74
2023/02/18 00:47:04;;;;;;;;;18.60;17.60;;;;;14.85;64.69;102736.78;2011661;28;3564816;-75
2023/02/18 00:48:16;;;;;;;;;18.00;16.67;;;;;14.85;64.59;102729.75;2041138;28;3562729;-75
2023/02/18 00:49:28;;;;;;;;;20.20;16.60;;;;;14.85;64.57;102735.03;2039424;28;3558546;-75
2023/02/18 00:50:39;;;;;;;;;13.00;12.00;;;;;14.84;64.62;102722.66;2030648;28;2786741;-75
2023/02/18 00:51:50;;;;;;;;;15.00;12.00;;;;;14.85;64.86;102732.38;2015461;28;2799205;-75
2023/02/18 00:53:01;;;;;;;;;11.00;11.00;;;;;14.85;64.66;102719.16;2008780;28;2790875;-75
2023/02/18 00:54:12;;;;;;;;;8.00;8.00;;;;;14.85;64.56;102719.16;2010797;28;2740903;-75
2023/02/18 00:55:23;;;;;;;;;15.00;13.50;;;;;14.85;64.93;102727.09;2030157;28;2806509;-75
2023/02/18 00:56:35;;;;;;;;;14.00;10.33;;;;;14.84;64.71;102721.81;2012301;28;2786681;-75
2023/02/18 00:57:46;;;;;;;;;14.50;12.00;;;;;14.84;64.82;102717.34;2027759;28;2793977;-75
2023/02/18 00:58:57;;;;;;;;;12.50;11.00;;;;;14.83;64.75;102713.00;2016126;27;2787768;-74
2023/02/18 01:00:09;;;;;;;;;14.67;13.00;;;;;14.83;64.93;102710.34;2017744;28;2785689;-74
2023/02/18 01:01:23;;;;;;;;;16.14;13.29;;;;;14.82;64.52;102716.53;2054393;28;1833626;-74
2023/02/18 01:02:34;;;;;;;;;11.00;11.00;;;;;14.82;64.90;102718.28;2023074;28;2786749;-74
2023/02/18 01:03:45;;;;;;;;;12.00;8.00;;;;;14.82;64.72;102723.59;2002117;28;3485609;-74
2023/02/18 01:04:57;;;;;;;;;11.67;10.67;;;;;14.82;64.69;102720.94;2022391;28;2789867;-75
2023/02/18 01:06:09;;;;;;;;;10.00;10.00;;;;;14.82;64.71;102715.66;2023701;28;2779435;-75
2023/02/18 01:07:21;;;;;;;;;13.60;11.80;;;;;14.82;64.55;102716.53;2020299;27;2801270;-74
2023/02/18 01:08:33;;;;;;;;;11.50;11.50;;;;;14.82;64.85;102716.53;2014349;28;2784634;-75
2023/02/18 01:09:44;;;;;;;;;15.00;14.00;;;;;14.81;64.83;102706.84;1994703;27;2805459;-75
2023/02/18 01:10:57;;;;;;;;;14.50;10.00;;;;;14.81;64.82;102709.50;2012129;28;2791886;-75
2023/02/18 01:12:07;;;;;;;;;15.50;14.50;;;;;14.82;64.83;102703.28;2004097;28;2820021;-75
2023/02/18 01:13:18;;;;;;;;;12.25;10.75;;;;;14.82;64.66;102705.94;2039039;27;1819056;-75
2023/02/18 01:14:32;;;;;;;;;15.33;13.17;;;;;14.82;65.13;102700.63;2036364;27;1836255;-74
2023/02/18 01:15:42;;;;;;;;;13.50;12.00;;;;;14.81;64.75;102701.56;1993864;28;2799234;-75
2023/02/18 01:16:53;;;;;;;;;14.50;10.00;;;;;14.81;65.07;102704.22;2013842;27;2796057;-75
2023/02/18 01:18:06;;;;;;;;;11.50;11.50;;;;;14.81;64.94;102701.56;2017044;28;2802343;-74
2023/02/18 01:19:17;;;;;;;;;10.00;9.50;;;;;14.81;64.87;102708.63;1997533;27;2764847;-74
2023/02/18 01:20:28;;;;;;;;;16.00;12.00;;;;;14.81;65.03;102698.03;2010562;28;2790869;-75
2023/02/18 01:21:39;;;;;;;;;13.60;11.40;;;;;14.81;65.12;102705.97;2030172;28;1831568;-75
2023/02/18 01:22:51;;;;;;;;;12.00;10.00;;;;;14.80;64.89;102705.09;2023121;27;2788843;-75
2023/02/18 01:24:01;;;;;;;;;9.00;8.00;;;;;14.80;64.95;102715.69;1999482;27;2754458;-75
2023/02/18 01:25:13;;;;;;;;;13.00;10.50;;;;;14.80;64.73;102707.75;2041075;28;2786718;-74
2023/02/18 01:26:26;;;;;;;;;10.83;10.83;;;;;14.79;65.09;102711.28;2055492;27;1827407;-75
2023/02/18 01:27:37;;;;;;;;;13.00;10.50;;;;;14.79;65.02;102705.13;2000791;28;2789854;-74
2023/02/18 01:28:48;;;;;;;;;12.50;11.50;;;;;14.78;64.79;102703.38;2015939;28;2788781;-75
2023/02/18 01:29:59;;;;;;;;;13.00;11.50;;;;;14.78;64.92;102706.91;2013799;28;2782582;-74
2023/02/18 01:31:12;;;;;;;;;12.00;11.50;;;;;14.77;64.83;102707.78;2008584;27;2787277;-74
2023/02/18 01:32:22;;;;;;;;;14.50;12.00;;;;;14.78;64.56;102709.56;2022435;28;2793969;-74
2023/02/18 01:33:34;;;;;;;;;14.00;10.00;;;;;14.77;64.77;102707.78;2014899;28;2784626;-74
2023/02/18 01:34:45;;;;;;;;;10.50;9.50;;;;;14.76;65.02;102706.06;2031205;28;1819053;-75
2023/02/18 01:35:59;;;;;;;;;12.00;9.83;;;;;14.76;64.65;102707.84;2055903;27;1820143;-75
2023/02/18 01:37:09;;;;;;;;;14.50;10.00;;;;;14.74;64.92;102705.22;2000362;28;2784654;-74
2023/02/18 01:38:20;;;;;;;;;15.50;10.00;;;;;14.74;64.56;102703.44;2015860;28;2785675;-74
2023/02/18 01:39:32;;;;;;;;;10.00;8.60;;;;;14.75;64.47;102704.31;2032164;28;1821104;-74
2023/02/18 01:40:50;;;;;;;;;10.00;10.00;;;;;14.76;64.67;102705.19;2022684;28;2778377;-75
2023/02/18 01:42:01;;;;;;;;;10.00;9.00;;;;;14.74;64.50;102698.13;2024666;28;2752714;-74
2023/02/18 01:43:15;;;;;;;;;12.17;10.67;;;;;14.75;64.43;102699.00;2062822;27;1827370;-74
2023/02/18 01:44:28;;;;;;;;;8.75;8.00;;;;;14.75;64.52;102693.72;2021510;27;1818012;-74
2023/02/18 01:46:15;;;;;;;;;8.83;8.00;;;;;14.74;64.43;102705.22;2044290;28;2746526;-74
2023/02/18 01:47:25;;;;;;;;;14.50;11.00;;;;;14.74;64.42;102697.28;1997219;28;2789827;-75
2023/02/18 01:48:57;;;;;;;;;9.00;9.00;;;;;14.73;64.26;102699.06;2008028;28;2760630;-75
2023/02/18 01:50:08;;;;;;;;;10.67;8.33;;;;;14.72;64.44;102694.66;2023105;28;3480497;-74
2023/02/18 01:51:28;;;;;;;;;10.50;8.00;;;;;14.72;64.27;102693.78;2029737;27;2766957;-74
2023/02/18 01:52:39;;;;;;;;;11.50;8.50;;;;;14.71;64.11;102684.09;2024724;28;2759634;-75
2023/02/18 01:53:50;;;;;;;;;10.00;10.00;;;;;14.71;64.04;102687.63;2040023;27;2779439;-74
2023/02/18 01:55:01;;;;;;;;;11.00;9.00;;;;;14.71;64.31;102690.28;2008154;28;3492968;-74
2023/02/18 01:56:20;;;;;;;;;9.67;8.67;;;;;14.70;63.93;102685.88;2037281;27;3466915;-74
2023/02/18 01:57:37;;;;;;;;;10.00;8.75;;;;;14.70;63.98;102679.69;2033724;28;1835797;-74
2023/02/18 01:58:49;;;;;;;;;7.00;7.00;;;;;14.69;64.08;102689.41;2025072;28;2742172;-74
2023/02/18 02:00:12;;;;;;;;;8.67;8.67;;;;;14.69;64.04;102684.13;2025427;28;2754478;-74
2023/02/18 02:01:24;;;;;;;;;10.67;8.67;;;;;14.69;64.08;102680.63;2024218;28;3487750;-75
2023/02/18 02:02:38;;;;;;;;;7.50;7.00;;;;;14.67;64.17;102680.63;2025540;27;2741927;-75
2023/02/18 02:03:49;;;;;;;;;11.00;10.00;;;;;14.67;63.93;102672.69;2023782;27;2772167;-75
2023/02/18 02:05:01;;;;;;;;;8.00;7.75;;;;;14.65;64.04;102676.25;2057787;28;1811781;-74
2023/02/18 02:06:16;;;;;;;;;7.50;7.50;;;;;14.65;64.09;102671.84;2031930;28;1810686;-74
2023/02/18 02:07:28;;;;;;;;;9.00;7.00;;;;;14.66;64.21;102672.72;2018045;28;2738241;-74
2023/02/18 02:08:39;;;;;;;;;8.00;8.00;;;;;14.65;63.92;102673.63;2025441;28;3455445;-74
2023/02/18 02:09:53;;;;;;;;;14.00;9.00;;;;;14.65;63.94;102670.97;2041453;27;2760709;-74
2023/02/18 02:11:23;;;;;;;;;9.67;7.33;;;;;14.63;63.66;102661.31;2024628;27;3468982;-74
2023/02/18 02:12:55;;;;;;;;;7.83;7.00;;;;;14.63;63.79;102671.91;2062729;27;1820105;-75
2023/02/18 02:14:28;;;;;;;;;7.50;7.50;;;;;14.62;64.06;102667.50;2006622;27;2475253;-74
2023/02/18 02:16:18;;;;;;;;;7.75;7.75;;;;;14.63;63.84;102663.06;2039031;28;1821118;-75
2023/02/18 02:17:37;;;;;;;;;8.33;8.33;;;;;14.64;63.71;102664.84;2011320;28;3471160;-74
2023/02/18 02:19:14;;;;;;;;;9.00;8.00;;;;;14.62;63.72;102662.19;2025505;28;2734651;-74
2023/02/18 02:20:49;;;;;;;;;9.67;9.00;;;;;14.62;63.70;102661.31;2016437;28;3470035;-74
2023/02/18 02:22:27;;;;;;;;;8.67;7.33;;;;;14.60;63.83;102658.72;2017203;28;3452335;-74
2023/02/18 02:24:16;;;;;;;;;8.25;7.25;;;;;14.60;63.60;102664.00;2037775;28;1808606;-74
2023/02/18 02:25:38;;;;;;;;;8.00;8.00;;;;;14.57;63.51;102653.47;2031833;28;1825258;-74
2023/02/18 02:27:16;;;;;;;;;10.00;8.33;;;;;14.56;63.60;102657.03;2016337;28;1836708;-74
2023/02/18 02:28:33;;;;;;;;;8.00;8.00;;;;;14.56;63.66;102656.16;1995065;28;3461683;-74
2023/02/18 02:30:21;;;;;;;;;8.75;8.00;;;;;14.55;63.75;102665.88;2032751;28;1833689;-74
2023/02/18 02:32:02;;;;;;;;;5.50;5.50;;;;;14.55;63.75;102655.28;2043856;28;2728426;-75
2023/02/18 02:34:06;;;;;;;;;9.00;7.33;;;;;14.54;63.79;102650.91;2024904;28;3456529;-74
2023/02/18 02:35:24;;;;;;;;;8.00;7.17;;;;;14.51;63.61;102654.47;2030527;28;2737246;-74
2023/02/18 02:36:46;;;;;;;;;8.00;6.50;;;;;14.51;63.74;102648.31;2013175;28;2737868;-74
2023/02/18 02:38:17;;;;;;;;;10.00;7.67;;;;;14.50;63.94;102650.06;1993527;28;3480460;-74
2023/02/18 02:39:51;;;;;;;;;8.33;8.33;;;;;14.51;63.75;102645.66;2036279;27;1841940;-74
2023/02/18 02:41:13;;;;;;;;;9.33;8.33;;;;;14.50;63.59;102642.13;1999144;28;2751294;-75
2023/02/18 02:42:39;;;;;;;;;12.33;8.00;;;;;14.50;63.62;102642.13;2040111;27;1835694;-74
2023/02/18 02:44:26;;;;;;;;;7.33;6.67;;;;;14.50;63.68;102641.25;2004851;27;2744134;-74
2023/02/18 02:45:49;;;;;;;;;9.33;7.00;;;;;14.50;63.50;102638.63;2020023;28;3465862;-74
2023/02/18 02:47:08;;;;;;;;;10.00;8.67;;;;;14.49;63.47;102632.44;2025986;27;3467945;-74
2023/02/18 02:48:35;;;;;;;;;8.33;8.33;;;;;14.48;63.65;102628.06;2040504;27;1829420;-74
2023/02/18 02:49:51;;;;;;;;;7.50;7.50;;;;;14.47;63.35;102636.91;2024629;27;2733583;-74
2023/02/18 02:51:18;;;;;;;;;7.33;6.50;;;;;14.48;63.49;102632.50;2025244;28;2740365;-74
2023/02/18 02:52:47;;;;;;;;;10.00;7.17;;;;;14.47;63.37;102625.47;2053521;28;2742994;-74
2023/02/18 02:54:25;;;;;;;;;6.83;6.83;;;;;14.47;62.98;102626.31;2029185;28;2741933;-74
2023/02/18 02:55:36;;;;;;;;;10.25;10.25;;;;;14.48;63.48;102628.06;2016124;28;1840875;-74
2023/02/18 02:56:47;;;;;;;;;7.00;7.00;;;;;14.50;63.68;102630.69;2026809;27;2741943;-74
2023/02/18 02:57:58;;;;;;;;;11.33;9.33;;;;;14.50;63.43;102628.03;2025880;27;3496564;-74
2023/02/18 02:59:19;;;;;;;;;8.50;8.50;;;;;14.49;63.47;102626.31;2058492;27;1841957;-74
2023/02/18 03:00:54;;;;;;;;;13.33;8.00;;;;;14.50;63.51;102617.44;2025157;27;3489675;-74
2023/02/18 03:02:29;;;;;;;;;11.00;10.00;;;;;14.50;63.64;102630.69;2020393;28;2789891;-74
2023/02/18 03:04:08;;;;;;;;;8.33;7.00;;;;;14.49;63.66;102627.16;2053651;27;2734651;-74
2023/02/18 03:05:23;;;;;;;;;9.33;8.67;;;;;14.50;63.65;102625.38;2002338;28;3475231;-74
2023/02/18 03:06:55;;;;;;;;;9.33;8.00;;;;;14.51;63.57;102632.44;2026803;28;2735689;-74
2023/02/18 03:08:31;;;;;;;;;13.75;12.00;;;;;14.52;63.30;102628.88;2039856;27;1833588;-74
2023/02/18 03:10:10;;;;;;;;;10.17;9.17;;;;;14.51;63.30;102635.09;2057486;27;1821127;-74
2023/02/18 03:11:22;;;;;;;;;10.00;7.00;;;;;14.49;63.46;102627.16;2011809;28;1831565;-74
2023/02/18 03:12:48;;;;;;;;;8.00;8.00;;;;;14.49;63.25;102628.94;2024923;28;3449230;-74
2023/02/18 03:14:16;;;;;;;;;8.33;7.00;;;;;14.47;63.33;102625.47;2027044;27;2747255;-74
2023/02/18 03:15:54;;;;;;;;;9.00;8.00;;;;;14.46;63.25;102624.59;2025991;27;2742965;-74
2023/02/18 03:17:20;;;;;;;;;8.50;8.00;;;;;14.47;63.62;102625.47;2053246;27;2738829;-74
2023/02/18 03:18:39;;;;;;;;;10.00;9.00;;;;;14.46;63.50;102619.31;2001162;28;2774229;-74
2023/02/18 03:20:22;;;;;;;;;9.00;7.00;;;;;14.47;63.32;102622.81;2026909;28;2501264;-74
2023/02/18 03:21:46;;;;;;;;;12.33;9.00;;;;;14.47;62.91;102626.31;2020037;27;3487137;-74
2023/02/18 03:23:05;;;;;;;;;10.17;9.33;;;;;14.48;63.45;102624.56;2053703;28;1823274;-74
2023/02/18 03:24:33;;;;;;;;;9.50;8.83;;;;;14.47;63.32;102618.38;2029292;28;1819068;-74
2023/02/18 03:25:44;;;;;;;;;9.25;9.25;;;;;14.46;63.30;102621.06;2010995;28;1832636;-74
2023/02/18 03:27:03;;;;;;;;;9.33;8.67;;;;;14.46;63.52;102615.78;2022970;27;3468975;-74
2023/02/18 03:28:19;;;;;;;;;8.33;8.33;;;;;14.44;63.22;102620.22;2052815;28;2733618;-74
2023/02/18 03:29:33;;;;;;;;;5.33;5.33;;;;;14.44;63.31;102620.22;2028374;28;2743447;-74
2023/02/18 03:30:53;;;;;;;;;8.67;8.00;;;;;14.44;63.46;102617.59;2009231;27;3453394;-74
2023/02/18 03:32:07;;;;;;;;;9.00;7.00;;;;;14.44;63.30;102617.59;2031000;27;2729441;-74
2023/02/18 03:33:35;;;;;;;;;10.67;8.00;;;;;14.44;63.31;102607.00;2045274;28;2742985;-74
2023/02/18 03:34:54;;;;;;;;;9.67;7.00;;;;;14.45;63.05;102616.66;1998140;28;3468959;-74
2023/02/18 03:36:08;;;;;;;;;9.50;9.33;;;;;14.45;63.11;102609.59;2056330;28;1819080;-74
2023/02/18 03:37:19;;;;;;;;;8.00;8.00;;;;;14.46;63.24;102621.06;2003165;27;2732550;-74
2023/02/18 03:38:42;;;;;;;;;10.50;8.50;;;;;14.46;63.33;102618.41;2017317;28;2764902;-74
2023/02/18 03:39:59;;;;;;;;;8.83;8.83;;;;;14.45;63.20;102616.66;2044822;28;2739917;-74
2023/02/18 03:41:11;;;;;;;;;13.00;10.00;;;;;14.46;63.52;102610.47;2012205;28;1827345;-74
2023/02/18 03:42:26;;;;;;;;;9.00;8.17;;;;;14.46;63.28;102607.84;2052868;27;2737119;-74
2023/02/18 03:43:39;;;;;;;;;10.33;7.33;;;;;14.47;63.57;102606.94;2002676;27;3474211;-74
2023/02/18 03:44:52;;;;;;;;;6.83;6.17;;;;;14.48;63.19;102608.66;2054366;27;2736736;-75
2023/02/18 03:46:03;;;;;;;;;9.33;8.00;;;;;14.47;63.43;102620.19;2016999;28;1829496;-74
2023/02/18 03:47:15;;;;;;;;;8.75;8.25;;;;;14.46;63.49;102606.06;2024247;28;1835716;-74
2023/02/18 03:48:25;;;;;;;;;11.00;9.00;;;;;14.47;63.06;102609.59;2020497;28;2765889;-75
2023/02/18 03:49:37;;;;;;;;;11.00;10.00;;;;;14.47;63.26;102604.31;2056073;27;1815474;-74
2023/02/18 03:50:50;;;;;;;;;8.83;8.83;;;;;14.46;63.65;102599.91;2028552;27;2727349;-74
2023/02/18 03:52:02;;;;;;;;;8.50;8.00;;;;;14.46;63.44;102602.53;2010823;27;1841938;-74
2023/02/18 03:53:15;;;;;;;;;8.83;8.17;;;;;14.46;63.49;102602.53;2046468;27;2744425;-74
2023/02/18 03:54:27;;;;;;;;;12.50;8.75;;;;;14.46;63.29;102607.84;2007324;28;1829544;-74
2023/02/18 03:55:37;;;;;;;;;8.00;7.67;;;;;14.43;63.38;102603.47;2018677;28;2747136;-74
2023/02/18 03:56:48;;;;;;;;;13.33;9.33;;;;;14.45;63.48;102614.91;2041223;28;3500829;-75
2023/02/18 03:58:00;;;;;;;;;7.50;7.50;;;;;14.45;62.97;102606.09;2055673;27;1830515;-74
2023/02/18 03:59:11;;;;;;;;;13.50;10.00;;;;;14.45;63.28;102606.09;2024849;27;2779434;-74
2023/02/18 04:00:24;;;;;;;;;10.00;10.00;;;;;14.43;63.30;102610.53;2057723;27;1820117;-74
2023/02/18 04:01:35;;;;;;;;;9.50;7.50;;;;;14.43;63.33;102603.47;2002530;28;2748181;-75
2023/02/18 04:02:46;;;;;;;;;7.67;6.00;;;;;14.42;63.31;102608.81;2041831;28;2734724;-75
2023/02/18 04:03:58;;;;;;;;;10.75;10.00;;;;;14.43;63.41;102613.19;2050352;28;1841961;-75
2023/02/18 04:05:09;;;;;;;;;7.67;6.67;;;;;14.41;63.36;102610.56;2027399;27;2730557;-74
2023/02/18 04:06:20;;;;;;;;;10.33;6.67;;;;;14.43;63.25;102615.81;2025074;28;3476302;-75
2023/02/18 04:07:31;;;;;;;;;7.33;7.33;;;;;14.42;63.33;102609.66;2024542;28;3455484;-75
2023/02/18 04:08:42;;;;;;;;;10.00;8.33;;;;;14.42;63.02;102608.81;2042379;28;3463832;-75
2023/02/18 04:09:53;;;;;;;;;8.75;8.75;;;;;14.42;63.05;102606.16;2052148;28;2733711;-74
2023/02/18 04:11:04;;;;;;;;;8.67;7.67;;;;;14.40;63.31;102596.47;2018973;28;2739920;-74
2023/02/18 04:12:15;;;;;;;;;8.00;8.00;;;;;14.40;63.16;102601.75;2029868;28;2744061;-74
2023/02/18 04:13:26;;;;;;;;;7.33;7.33;;;;;14.42;63.24;102598.22;2050276;27;2746063;-74
2023/02/18 04:14:37;;;;;;;;;7.67;7.67;;;;;14.40;62.91;102609.69;2003969;27;2739918;-74
2023/02/18 04:15:49;;;;;;;;;11.67;10.67;;;;;14.40;63.12;102604.41;2043628;27;3504401;-75
2023/02/18 04:17:01;;;;;;;;;12.00;9.00;;;;;14.40;62.91;102609.69;2037444;28;1835660;-75
2023/02/18 04:18:11;;;;;;;;;9.50;8.00;;;;;14.39;63.01;102600.03;2022415;28;2494015;-75
2023/02/18 04:19:22;;;;;;;;;11.50;9.75;;;;;14.39;62.84;102599.16;2053868;28;1822165;-74
2023/02/18 04:20:33;;;;;;;;;9.67;8.00;;;;;14.39;62.81;102607.97;2002604;27;2747288;-74
2023/02/18 04:21:44;;;;;;;;;9.00;7.00;;;;;14.38;62.99;102598.28;2042449;27;2749227;-74
2023/02/18 04:22:55;;;;;;;;;7.67;5.67;;;;;14.38;62.63;102603.56;2056262;27;1826893;-74
2023/02/18 04:24:06;;;;;;;;;11.33;8.00;;;;;14.38;62.82;102603.56;2033188;27;1848283;-74
2023/02/18 04:25:17;;;;;;;;;8.00;8.00;;;;;14.38;62.66;102595.63;2002106;27;2743261;-74
2023/02/18 04:26:28;;;;;;;;;9.00;9.00;;;;;14.38;62.68;102605.34;2037921;28;2739845;-74
2023/02/18 04:27:38;;;;;;;;;9.50;8.00;;;;;14.38;62.35;102605.34;2012427;28;2754384;-74
2023/02/18 04:28:49;;;;;;;;;9.67;8.00;;;;;14.38;62.64;102605.34;2049764;28;1829464;-74
2023/02/18 04:30:03;;;;;;;;;9.75;9.50;;;;;14.37;62.28;102603.59;2029662;28;1831555;-74
2023/02/18 04:31:14;;;;;;;;;10.33;9.33;;;;;14.37;62.51;102601.81;2024216;27;3490881;-74
2023/02/18 04:32:26;;;;;;;;;8.20;8.20;;;;;14.37;62.26;102609.75;2052226;27;2733048;-74
2023/02/18 04:33:37;;;;;;;;;8.67;7.33;;;;;14.38;62.15;102602.69;2025378;28;3455460;-74
2023/02/18 04:34:48;;;;;;;;;8.33;7.00;;;;;14.39;62.12;102612.38;2041684;28;3456486;-74
2023/02/18 04:35:59;;;;;;;;;8.67;7.00;;;;;14.37;62.85;102604.47;2039514;28;3451788;-74
2023/02/18 04:37:09;;;;;;;;;9.00;7.67;;;;;14.36;61.59;102608.03;2039843;28;2724286;-74
2023/02/18 04:38:20;;;;;;;;;10.33;8.33;;;;;14.36;61.80;102605.38;2038184;27;2753482;-74
2023/02/18 04:39:32;;;;;;;;;9.25;8.00;;;;;14.35;61.82;102614.19;2043531;28;2730495;-74
2023/02/18 04:40:43;;;;;;;;;10.50;9.00;;;;;14.36;61.83;102617.72;2000503;28;2754472;-74
2023/02/18 04:41:54;;;;;;;;;9.00;9.00;;;;;14.35;61.56;102605.38;2042826;27;2755488;-74
2023/02/18 04:43:05;;;;;;;;;8.67;8.00;;;;;14.32;61.31;102608.97;2039969;28;3440834;-74
2023/02/18 04:44:15;;;;;;;;;10.33;7.33;;;;;14.33;61.32;102604.53;2040212;28;3471133;-75
2023/02/18 04:45:27;;;;;;;;;13.33;10.33;;;;;14.31;60.95;102604.59;2038043;28;3507515;-75
2023/02/18 04:46:38;;;;;;;;;9.33;9.00;;;;;14.29;61.04;102606.41;2039267;28;1829414;-74
2023/02/18 04:47:48;;;;;;;;;9.67;6.00;;;;;14.29;61.26;102606.41;2011965;27;2752742;-74
2023/02/18 04:48:59;;;;;;;;;9.33;8.33;;;;;14.28;61.10;102594.94;2048649;28;2740887;-75
2023/02/18 04:50:13;;;;;;;;;8.50;8.50;;;;;14.27;60.86;102597.63;2028532;27;2739844;-75
2023/02/18 04:51:23;;;;;;;;;10.67;8.00;;;;;14.27;60.82;102597.63;2001556;27;3481541;-75
2023/02/18 04:52:35;;;;;;;;;8.75;7.50;;;;;14.26;61.02;102596.75;2049758;28;1821095;-75
2023/02/18 04:53:48;;;;;;;;;7.50;7.50;;;;;14.26;61.19;102598.50;2051137;27;2735670;-74
2023/02/18 04:55:01;;;;;;;;;8.17;7.17;;;;;14.25;60.85;102599.41;2052047;28;2741948;-75
2023/02/18 04:56:12;;;;;;;;;8.00;6.00;;;;;14.24;60.87;102606.47;2001405;28;2736897;-74
2023/02/18 04:57:23;;;;;;;;;11.00;9.33;;;;;14.24;60.78;102608.25;2048959;28;1841916;-75
2023/02/18 04:58:33;;;;;;;;;6.00;6.00;;;;;14.24;60.68;102606.47;2002326;28;2748192;-74
2023/02/18 04:59:44;;;;;;;;;7.33;5.33;;;;;14.24;61.08;102608.25;2051608;27;2742075;-74
2023/02/18 05:01:03;;;;;;;;;8.50;6.50;;;;;14.23;60.80;102610.00;2046094;28;2740310;-75
2023/02/18 05:02:13;;;;;;;;;7.00;7.00;;;;;14.22;60.99;102604.75;1999211;28;2737822;-75
2023/02/18 05:03:26;;;;;;;;;10.75;7.50;;;;;14.22;60.27;102610.06;2059774;27;1823228;-74
2023/02/18 05:04:36;;;;;;;;;6.50;6.50;;;;;14.21;60.41;102608.28;2031125;27;2735687;-75
2023/02/18 05:05:47;;;;;;;;;8.00;8.00;;;;;14.20;60.47;102606.56;2039503;28;3452392;-75
2023/02/18 05:06:59;;;;;;;;;11.25;8.25;;;;;14.19;60.49;102605.69;2051820;27;1821123;-75
2023/02/18 05:08:09;;;;;;;;;8.33;7.33;;;;;14.18;60.52;102606.59;2025912;27;2742022;-75
2023/02/18 05:09:20;;;;;;;;;6.67;6.00;;;;;14.18;60.35;102598.66;2042638;27;3455495;-74
2023/02/18 05:10:32;;;;;;;;;8.25;6.25;;;;;14.18;60.40;102604.81;2045498;27;2738823;-75
2023/02/18 05:11:43;;;;;;;;;8.00;7.33;;;;;14.18;60.43;102596.88;2033091;28;1829428;-75
2023/02/18 05:12:54;;;;;;;;;3.00;3.00;;;;;14.18;60.64;102601.28;2004374;27;2746118;-75
2023/02/18 05:14:06;;;;;;;;;8.25;8.25;;;;;14.18;60.52;102602.16;2058793;27;2737771;-75
2023/02/18 05:15:19;;;;;;;;;7.50;5.67;;;;;14.18;60.32;102599.53;2048686;27;2733033;-74
2023/02/18 05:16:30;;;;;;;;;8.33;7.00;;;;;14.18;59.89;102601.28;2020498;28;2741943;-74
2023/02/18 05:17:40;;;;;;;;;7.00;6.33;;;;;14.16;60.36;102605.75;2039451;28;2745118;-75
2023/02/18 05:18:51;;;;;;;;;7.00;7.00;;;;;14.15;60.28;102602.22;2036902;28;3455481;-74
2023/02/18 05:20:05;;;;;;;;;7.00;7.00;;;;;14.14;60.01;102603.13;2032191;28;2746142;-74
2023/02/18 05:21:16;;;;;;;;;10.50;8.50;;;;;14.14;60.51;102607.53;2038737;28;1827346;-74
2023/02/18 05:22:26;;;;;;;;;7.67;7.67;;;;;14.12;59.89;102601.41;2021541;28;3451278;-74
2023/02/18 05:23:37;;;;;;;;;6.00;6.00;;;;;14.11;60.15;102608.47;2039171;27;3449206;-74
2023/02/18 05:24:49;;;;;;;;;8.50;7.25;;;;;14.10;60.19;102603.22;2050030;28;2735685;-74
2023/02/18 05:26:00;;;;;;;;;9.67;8.00;;;;;14.09;60.52;102602.34;2024512;28;3475327;-74
2023/02/18 05:27:11;;;;;;;;;10.33;8.67;;;;;14.10;60.08;102604.06;2031159;28;3486697;-74
2023/02/18 05:28:23;;;;;;;;;8.00;7.00;;;;;14.10;60.41;102606.72;2048732;28;2740749;-75
2023/02/18 05:29:36;;;;;;;;;8.33;7.50;;;;;14.11;60.23;102602.31;2045527;28;2730585;-75
2023/02/18 05:30:47;;;;;;;;;11.75;9.00;;;;;14.10;60.05;102609.34;2010659;27;1846143;-74
2023/02/18 05:32:01;;;;;;;;;7.67;7.17;;;;;14.11;59.86;102612.88;2042632;28;2732584;-74
2023/02/18 05:33:14;;;;;;;;;6.83;5.67;;;;;14.11;60.33;102610.25;2020727;28;2746111;-74
2023/02/18 05:34:27;;;;;;;;;7.83;7.50;;;;;14.10;60.34;102609.34;2027911;28;2735708;-74
2023/02/18 05:35:38;;;;;;;;;7.33;7.33;;;;;14.11;59.54;102613.75;2007198;27;2742041;-75
2023/02/18 05:36:49;;;;;;;;;8.00;6.33;;;;;14.10;59.64;102611.16;2034838;27;2741927;-74
2023/02/18 05:38:00;;;;;;;;;7.75;7.75;;;;;14.07;59.65;102601.50;2046734;28;1812849;-75
2023/02/18 05:39:11;;;;;;;;;7.00;6.67;;;;;14.06;59.81;102613.84;2030995;28;1816913;-75